sensor_id;sensor_type;location;lat;lon;timestamp;P1;durP1;ratioP1;P2;durP2;ratioP2
21243;SDS011;10780;50.942;4.028;2023-02-28T00:00:34;13.23;;;7.70;;
21243;SDS011;10780;50.942;4.028;2023-02-28T00:03:00;11.55;;;6.85;;
21243;SDS011;10780;50.942;4.028;2023-02-28T00:05:26;9.48;;;6.93;;
21243;SDS011;10780;50.942;4.028;2023-02-28T00:07:53;11.10;;;7.53;;
21243;SDS011;10780;50.942;4.028;2023-02-28T00:10:31;10.25;;;7.50;;
21243;SDS011;10780;50.942;4.028;2023-02-28T00:13:00;10.60;;;7.85;;
21243;SDS011;10780;50.942;4.028;2023-02-28T00:15:28;11.68;;;7.93;;
21243;SDS011;10780;50.942;4.028;2023-02-28T00:17:54;15.45;;;7.78;;
21243;SDS011;10780;50.942;4.028;2023-02-28T00:20:20;13.25;;;8.40;;
21243;SDS011;10780;50.942;4.028;2023-02-28T00:22:46;10.45;;;7.68;;
21243;SDS011;10780;50.942;4.028;2023-02-28T00:25:16;14.52;;;8.15;;
21243;SDS011;10780;50.942;4.028;2023-02-28T00:27:44;12.88;;;7.53;;
21243;SDS011;10780;50.942;4.028;2023-02-28T00:30:11;11.63;;;7.57;;
21243;SDS011;10780;50.942;4.028;2023-02-28T00:32:39;14.70;;;8.38;;
21243;SDS011;10780;50.942;4.028;2023-02-28T00:35:05;10.90;;;7.85;;
21243;SDS011;10780;50.942;4.028;2023-02-28T00:37:31;12.10;;;7.78;;
21243;SDS011;10780;50.942;4.028;2023-02-28T00:39:57;13.18;;;6.88;;
21243;SDS011;10780;50.942;4.028;2023-02-28T00:42:23;13.02;;;7.70;;
21243;SDS011;10780;50.942;4.028;2023-02-28T00:44:49;10.43;;;7.18;;
21243;SDS011;10780;50.942;4.028;2023-02-28T00:47:15;10.10;;;6.97;;
21243;SDS011;10780;50.942;4.028;2023-02-28T00:49:41;12.10;;;7.53;;
21243;SDS011;10780;50.942;4.028;2023-02-28T00:52:07;10.55;;;7.82;;
21243;SDS011;10780;50.942;4.028;2023-02-28T00:54:32;22.33;;;7.57;;
21243;SDS011;10780;50.942;4.028;2023-02-28T00:56:58;10.10;;;7.70;;
21243;SDS011;10780;50.942;4.028;2023-02-28T00:59:24;10.93;;;7.75;;
21243;SDS011;10780;50.942;4.028;2023-02-28T01:01:50;11.07;;;8.18;;
21243;SDS011;10780;50.942;4.028;2023-02-28T01:04:16;10.82;;;8.20;;
21243;SDS011;10780;50.942;4.028;2023-02-28T01:06:42;11.18;;;8.18;;
21243;SDS011;10780;50.942;4.028;2023-02-28T01:09:08;10.57;;;7.25;;
21243;SDS011;10780;50.942;4.028;2023-02-28T01:11:34;14.60;;;7.88;;
21243;SDS011;10780;50.942;4.028;2023-02-28T01:14:00;14.95;;;7.85;;
21243;SDS011;10780;50.942;4.028;2023-02-28T01:16:27;15.07;;;7.82;;
21243;SDS011;10780;50.942;4.028;2023-02-28T01:18:53;12.10;;;7.65;;
21243;SDS011;10780;50.942;4.028;2023-02-28T01:21:19;12.57;;;7.70;;
21243;SDS011;10780;50.942;4.028;2023-02-28T01:23:48;9.38;;;7.80;;
21243;SDS011;10780;50.942;4.028;2023-02-28T01:26:16;15.40;;;7.55;;
21243;SDS011;10780;50.942;4.028;2023-02-28T01:28:46;10.50;;;7.63;;
21243;SDS011;10780;50.942;4.028;2023-02-28T01:31:13;10.55;;;6.93;;
21243;SDS011;10780;50.942;4.028;2023-02-28T01:33:38;12.77;;;8.05;;
21243;SDS011;10780;50.942;4.028;2023-02-28T01:36:06;10.57;;;7.63;;
21243;SDS011;10780;50.942;4.028;2023-02-28T01:38:36;10.27;;;7.40;;
21243;SDS011;10780;50.942;4.028;2023-02-28T01:41:02;14.32;;;8.13;;
21243;SDS011;10780;50.942;4.028;2023-02-28T01:43:32;13.10;;;8.13;;
21243;SDS011;10780;50.942;4.028;2023-02-28T01:46:10;12.68;;;7.75;;
21243;SDS011;10780;50.942;4.028;2023-02-28T01:48:41;11.45;;;7.97;;
21243;SDS011;10780;50.942;4.028;2023-02-28T01:51:26;12.55;;;8.25;;
21243;SDS011;10780;50.942;4.028;2023-02-28T01:53:58;16.80;;;8.25;;
21243;SDS011;10780;50.942;4.028;2023-02-28T01:56:28;9.70;;;7.35;;
21243;SDS011;10780;50.942;4.028;2023-02-28T01:58:57;12.35;;;7.55;;
21243;SDS011;10780;50.942;4.028;2023-02-28T02:01:23;13.43;;;7.95;;
21243;SDS011;10780;50.942;4.028;2023-02-28T02:03:51;11.15;;;7.80;;
21243;SDS011;10780;50.942;4.028;2023-02-28T02:06:22;11.80;;;7.75;;
21243;SDS011;10780;50.942;4.028;2023-02-28T02:08:58;16.42;;;8.13;;
21243;SDS011;10780;50.942;4.028;2023-02-28T02:11:24;11.00;;;7.30;;
21243;SDS011;10780;50.942;4.028;2023-02-28T02:17:02;11.15;;;7.47;;
21243;SDS011;10780;50.942;4.028;2023-02-28T02:31:06;10.95;;;7.25;;
21243;SDS011;10780;50.942;4.028;2023-02-28T02:38:39;11.30;;;7.20;;
21243;SDS011;10780;50.942;4.028;2023-02-28T02:41:28;12.73;;;7.63;;
21243;SDS011;10780;50.942;4.028;2023-02-28T02:44:21;11.30;;;7.65;;
21243;SDS011;10780;50.942;4.028;2023-02-28T02:46:55;9.93;;;7.38;;
21243;SDS011;10780;50.942;4.028;2023-02-28T02:49:29;14.32;;;7.63;;
21243;SDS011;10780;50.942;4.028;2023-02-28T02:51:57;11.30;;;7.63;;
21243;SDS011;10780;50.942;4.028;2023-02-28T02:54:30;11.90;;;8.20;;
21243;SDS011;10780;50.942;4.028;2023-02-28T02:57:01;11.20;;;7.72;;
21243;SDS011;10780;50.942;4.028;2023-02-28T02:59:30;15.75;;;8.23;;
21243;SDS011;10780;50.942;4.028;2023-02-28T03:01:59;12.35;;;8.05;;
21243;SDS011;10780;50.942;4.028;2023-02-28T03:04:28;13.77;;;8.23;;
21243;SDS011;10780;50.942;4.028;2023-02-28T03:06:58;12.25;;;7.88;;
21243;SDS011;10780;50.942;4.028;2023-02-28T03:09:24;10.55;;;7.72;;
21243;SDS011;10780;50.942;4.028;2023-02-28T03:11:52;12.35;;;6.97;;
21243;SDS011;10780;50.942;4.028;2023-02-28T03:20:27;11.18;;;7.72;;
21243;SDS011;10780;50.942;4.028;2023-02-28T03:26:07;14.73;;;8.40;;
21243;SDS011;10780;50.942;4.028;2023-02-28T03:36:34;11.23;;;7.40;;
21243;SDS011;10780;50.942;4.028;2023-02-28T03:39:09;10.52;;;7.90;;
21243;SDS011;10780;50.942;4.028;2023-02-28T03:41:54;11.38;;;7.78;;
21243;SDS011;10780;50.942;4.028;2023-02-28T03:44:26;13.48;;;8.23;;
21243;SDS011;10780;50.942;4.028;2023-02-28T03:47:01;12.80;;;7.88;;
21243;SDS011;10780;50.942;4.028;2023-02-28T03:49:43;12.98;;;7.90;;
21243;SDS011;10780;50.942;4.028;2023-02-28T03:52:14;14.05;;;8.90;;
21243;SDS011;10780;50.942;4.028;2023-02-28T03:54:45;14.32;;;9.05;;
21243;SDS011;10780;50.942;4.028;2023-02-28T03:57:27;14.10;;;8.23;;
21243;SDS011;10780;50.942;4.028;2023-02-28T04:00:08;13.07;;;8.48;;
21243;SDS011;10780;50.942;4.028;2023-02-28T04:02:39;10.70;;;8.05;;
21243;SDS011;10780;50.942;4.028;2023-02-28T04:05:05;11.07;;;8.07;;
21243;SDS011;10780;50.942;4.028;2023-02-28T04:07:32;12.70;;;8.60;;
21243;SDS011;10780;50.942;4.028;2023-02-28T04:09:58;12.02;;;8.55;;
21243;SDS011;10780;50.942;4.028;2023-02-28T04:12:24;13.05;;;8.55;;
21243;SDS011;10780;50.942;4.028;2023-02-28T04:14:50;10.60;;;8.50;;
21243;SDS011;10780;50.942;4.028;2023-02-28T04:17:16;15.25;;;8.98;;
21243;SDS011;10780;50.942;4.028;2023-02-28T04:19:42;10.98;;;8.30;;
21243;SDS011;10780;50.942;4.028;2023-02-28T04:22:08;11.70;;;8.20;;
21243;SDS011;10780;50.942;4.028;2023-02-28T04:24:34;12.63;;;8.32;;
21243;SDS011;10780;50.942;4.028;2023-02-28T04:27:01;16.00;;;8.77;;
21243;SDS011;10780;50.942;4.028;2023-02-28T04:29:28;15.70;;;9.15;;
21243;SDS011;10780;50.942;4.028;2023-02-28T04:31:57;13.57;;;9.30;;
21243;SDS011;10780;50.942;4.028;2023-02-28T04:34:24;14.75;;;9.00;;
21243;SDS011;10780;50.942;4.028;2023-02-28T04:36:54;14.63;;;8.88;;
21243;SDS011;10780;50.942;4.028;2023-02-28T04:39:21;14.07;;;8.60;;
21243;SDS011;10780;50.942;4.028;2023-02-28T04:41:48;13.02;;;9.20;;
21243;SDS011;10780;50.942;4.028;2023-02-28T04:44:14;12.68;;;9.30;;
21243;SDS011;10780;50.942;4.028;2023-02-28T04:46:40;12.23;;;9.00;;
21243;SDS011;10780;50.942;4.028;2023-02-28T04:49:06;12.23;;;9.30;;
21243;SDS011;10780;50.942;4.028;2023-02-28T04:51:32;16.80;;;9.77;;
21243;SDS011;10780;50.942;4.028;2023-02-28T04:53:58;11.98;;;8.70;;
21243;SDS011;10780;50.942;4.028;2023-02-28T04:56:24;12.07;;;9.23;;
21243;SDS011;10780;50.942;4.028;2023-02-28T04:58:49;13.57;;;9.15;;
21243;SDS011;10780;50.942;4.028;2023-02-28T05:01:22;11.80;;;9.15;;
21243;SDS011;10780;50.942;4.028;2023-02-28T05:03:50;11.68;;;8.75;;
21243;SDS011;10780;50.942;4.028;2023-02-28T05:06:17;11.80;;;8.55;;
21243;SDS011;10780;50.942;4.028;2023-02-28T05:08:43;13.50;;;9.27;;
21243;SDS011;10780;50.942;4.028;2023-02-28T05:11:17;10.68;;;9.07;;
21243;SDS011;10780;50.942;4.028;2023-02-28T05:13:48;13.88;;;9.43;;
21243;SDS011;10780;50.942;4.028;2023-02-28T05:16:15;16.33;;;8.93;;
21243;SDS011;10780;50.942;4.028;2023-02-28T05:18:41;12.82;;;9.35;;
21243;SDS011;10780;50.942;4.028;2023-02-28T05:21:14;13.85;;;9.52;;
21243;SDS011;10780;50.942;4.028;2023-02-28T05:23:48;14.38;;;9.07;;
21243;SDS011;10780;50.942;4.028;2023-02-28T05:26:14;12.45;;;9.13;;
21243;SDS011;10780;50.942;4.028;2023-02-28T05:28:39;12.50;;;9.07;;
21243;SDS011;10780;50.942;4.028;2023-02-28T05:31:05;13.70;;;10.48;;
21243;SDS011;10780;50.942;4.028;2023-02-28T05:33:31;15.82;;;10.32;;
21243;SDS011;10780;50.942;4.028;2023-02-28T05:35:56;14.25;;;9.48;;
21243;SDS011;10780;50.942;4.028;2023-02-28T05:38:22;15.65;;;10.38;;
21243;SDS011;10780;50.942;4.028;2023-02-28T05:40:47;14.93;;;9.95;;
21243;SDS011;10780;50.942;4.028;2023-02-28T05:43:13;15.90;;;9.90;;
21243;SDS011;10780;50.942;4.028;2023-02-28T05:45:39;16.70;;;9.15;;
21243;SDS011;10780;50.942;4.028;2023-02-28T05:48:04;14.35;;;9.13;;
21243;SDS011;10780;50.942;4.028;2023-02-28T05:50:30;13.13;;;9.38;;
21243;SDS011;10780;50.942;4.028;2023-02-28T05:52:56;13.43;;;9.48;;
21243;SDS011;10780;50.942;4.028;2023-02-28T05:55:22;11.45;;;9.07;;
21243;SDS011;10780;50.942;4.028;2023-02-28T05:57:47;13.23;;;9.43;;
21243;SDS011;10780;50.942;4.028;2023-02-28T06:00:13;13.65;;;9.02;;
21243;SDS011;10780;50.942;4.028;2023-02-28T06:02:40;15.13;;;10.02;;
21243;SDS011;10780;50.942;4.028;2023-02-28T06:05:13;14.30;;;9.63;;
21243;SDS011;10780;50.942;4.028;2023-02-28T06:07:40;12.52;;;9.38;;
21243;SDS011;10780;50.942;4.028;2023-02-28T06:10:06;12.15;;;8.82;;
21243;SDS011;10780;50.942;4.028;2023-02-28T06:12:32;13.43;;;9.23;;
21243;SDS011;10780;50.942;4.028;2023-02-28T06:14:57;15.25;;;9.48;;
21243;SDS011;10780;50.942;4.028;2023-02-28T06:17:23;13.85;;;9.23;;
21243;SDS011;10780;50.942;4.028;2023-02-28T06:19:48;14.57;;;9.43;;
21243;SDS011;10780;50.942;4.028;2023-02-28T06:22:14;13.63;;;9.23;;
21243;SDS011;10780;50.942;4.028;2023-02-28T06:24:40;13.00;;;9.68;;
21243;SDS011;10780;50.942;4.028;2023-02-28T06:27:05;14.30;;;9.90;;
21243;SDS011;10780;50.942;4.028;2023-02-28T06:29:32;13.48;;;9.25;;
21243;SDS011;10780;50.942;4.028;2023-02-28T06:31:58;10.75;;;8.98;;
21243;SDS011;10780;50.942;4.028;2023-02-28T06:34:24;14.27;;;9.35;;
21243;SDS011;10780;50.942;4.028;2023-02-28T06:36:50;14.00;;;9.57;;
21243;SDS011;10780;50.942;4.028;2023-02-28T06:39:17;14.65;;;10.10;;
21243;SDS011;10780;50.942;4.028;2023-02-28T06:41:42;15.68;;;9.68;;
21243;SDS011;10780;50.942;4.028;2023-02-28T06:44:17;13.82;;;9.65;;
21243;SDS011;10780;50.942;4.028;2023-02-28T06:46:43;13.90;;;9.55;;
21243;SDS011;10780;50.942;4.028;2023-02-28T06:49:10;11.23;;;9.45;;
21243;SDS011;10780;50.942;4.028;2023-02-28T06:51:42;14.70;;;9.18;;
21243;SDS011;10780;50.942;4.028;2023-02-28T06:54:12;15.15;;;9.60;;
21243;SDS011;10780;50.942;4.028;2023-02-28T06:56:38;19.35;;;9.80;;
21243;SDS011;10780;50.942;4.028;2023-02-28T06:59:04;15.13;;;10.00;;
21243;SDS011;10780;50.942;4.028;2023-02-28T07:01:29;17.15;;;9.52;;
21243;SDS011;10780;50.942;4.028;2023-02-28T07:03:57;11.98;;;9.30;;
21243;SDS011;10780;50.942;4.028;2023-02-28T07:06:25;14.15;;;9.63;;
21243;SDS011;10780;50.942;4.028;2023-02-28T07:08:51;15.63;;;10.20;;
21243;SDS011;10780;50.942;4.028;2023-02-28T07:11:19;13.13;;;8.98;;
21243;SDS011;10780;50.942;4.028;2023-02-28T07:13:50;16.67;;;8.45;;
21243;SDS011;10780;50.942;4.028;2023-02-28T07:16:21;15.90;;;9.85;;
21243;SDS011;10780;50.942;4.028;2023-02-28T07:18:53;13.23;;;8.48;;
21243;SDS011;10780;50.942;4.028;2023-02-28T07:21:21;13.60;;;9.55;;
21243;SDS011;10780;50.942;4.028;2023-02-28T07:23:48;15.00;;;11.15;;
21243;SDS011;10780;50.942;4.028;2023-02-28T07:26:17;16.38;;;10.20;;
21243;SDS011;10780;50.942;4.028;2023-02-28T07:28:45;16.33;;;10.23;;
21243;SDS011;10780;50.942;4.028;2023-02-28T07:31:13;13.75;;;9.68;;
21243;SDS011;10780;50.942;4.028;2023-02-28T07:33:47;17.73;;;9.77;;
21243;SDS011;10780;50.942;4.028;2023-02-28T07:36:14;14.57;;;9.40;;
21243;SDS011;10780;50.942;4.028;2023-02-28T07:38:44;14.60;;;9.52;;
21243;SDS011;10780;50.942;4.028;2023-02-28T07:41:15;12.32;;;9.52;;
21243;SDS011;10780;50.942;4.028;2023-02-28T07:43:44;15.27;;;9.30;;
21243;SDS011;10780;50.942;4.028;2023-02-28T07:46:13;15.38;;;10.00;;
21243;SDS011;10780;50.942;4.028;2023-02-28T07:48:41;12.65;;;9.32;;
21243;SDS011;10780;50.942;4.028;2023-02-28T07:51:10;16.95;;;9.77;;
21243;SDS011;10780;50.942;4.028;2023-02-28T07:53:37;21.73;;;10.27;;
21243;SDS011;10780;50.942;4.028;2023-02-28T07:56:06;19.83;;;10.63;;
21243;SDS011;10780;50.942;4.028;2023-02-28T07:58:34;22.10;;;10.80;;
21243;SDS011;10780;50.942;4.028;2023-02-28T08:01:05;16.92;;;11.13;;
21243;SDS011;10780;50.942;4.028;2023-02-28T08:03:32;17.98;;;10.82;;
21243;SDS011;10780;50.942;4.028;2023-02-28T08:05:58;13.90;;;10.13;;
21243;SDS011;10780;50.942;4.028;2023-02-28T08:08:25;17.80;;;9.82;;
21243;SDS011;10780;50.942;4.028;2023-02-28T08:10:54;17.98;;;10.25;;
21243;SDS011;10780;50.942;4.028;2023-02-28T08:13:26;14.02;;;9.50;;
21243;SDS011;10780;50.942;4.028;2023-02-28T08:15:54;11.00;;;9.00;;
21243;SDS011;10780;50.942;4.028;2023-02-28T08:18:21;16.10;;;10.00;;
21243;SDS011;10780;50.942;4.028;2023-02-28T08:20:48;12.52;;;9.98;;
21243;SDS011;10780;50.942;4.028;2023-02-28T08:23:14;13.60;;;9.45;;
21243;SDS011;10780;50.942;4.028;2023-02-28T08:25:42;13.07;;;9.73;;
21243;SDS011;10780;50.942;4.028;2023-02-28T08:28:08;14.43;;;9.63;;
21243;SDS011;10780;50.942;4.028;2023-02-28T08:30:33;10.75;;;8.88;;
21243;SDS011;10780;50.942;4.028;2023-02-28T08:32:59;11.07;;;8.35;;
21243;SDS011;10780;50.942;4.028;2023-02-28T08:35:26;13.98;;;8.02;;
21243;SDS011;10780;50.942;4.028;2023-02-28T08:37:52;11.90;;;7.90;;
21243;SDS011;10780;50.942;4.028;2023-02-28T08:40:18;9.20;;;7.07;;
21243;SDS011;10780;50.942;4.028;2023-02-28T08:42:44;11.23;;;7.25;;
21243;SDS011;10780;50.942;4.028;2023-02-28T08:45:11;7.32;;;6.63;;
21243;SDS011;10780;50.942;4.028;2023-02-28T08:47:37;8.85;;;7.00;;
21243;SDS011;10780;50.942;4.028;2023-02-28T08:50:07;8.57;;;6.78;;
21243;SDS011;10780;50.942;4.028;2023-02-28T08:52:36;12.55;;;7.03;;
21243;SDS011;10780;50.942;4.028;2023-02-28T08:55:03;8.40;;;6.60;;
21243;SDS011;10780;50.942;4.028;2023-02-28T08:57:29;10.30;;;6.63;;
21243;SDS011;10780;50.942;4.028;2023-02-28T08:59:55;10.35;;;7.03;;
21243;SDS011;10780;50.942;4.028;2023-02-28T09:02:21;7.50;;;6.53;;
21243;SDS011;10780;50.942;4.028;2023-02-28T09:04:47;7.05;;;6.15;;
21243;SDS011;10780;50.942;4.028;2023-02-28T09:07:13;10.30;;;6.50;;
21243;SDS011;10780;50.942;4.028;2023-02-28T09:09:39;7.85;;;7.10;;
21243;SDS011;10780;50.942;4.028;2023-02-28T09:12:18;7.53;;;6.55;;
21243;SDS011;10780;50.942;4.028;2023-02-28T09:14:46;7.80;;;6.30;;
21243;SDS011;10780;50.942;4.028;2023-02-28T09:17:11;6.43;;;5.82;;
21243;SDS011;10780;50.942;4.028;2023-02-28T09:19:37;6.93;;;6.22;;
21243;SDS011;10780;50.942;4.028;2023-02-28T09:22:09;8.65;;;5.50;;
21243;SDS011;10780;50.942;4.028;2023-02-28T09:24:45;5.93;;;5.35;;
21243;SDS011;10780;50.942;4.028;2023-02-28T09:27:11;8.02;;;5.43;;
21243;SDS011;10780;50.942;4.028;2023-02-28T09:29:37;5.38;;;4.45;;
21243;SDS011;10780;50.942;4.028;2023-02-28T09:32:03;4.72;;;4.20;;
21243;SDS011;10780;50.942;4.028;2023-02-28T09:34:30;7.13;;;4.80;;
21243;SDS011;10780;50.942;4.028;2023-02-28T09:36:56;7.63;;;4.75;;
21243;SDS011;10780;50.942;4.028;2023-02-28T09:39:22;5.28;;;4.28;;
21243;SDS011;10780;50.942;4.028;2023-02-28T09:41:50;6.10;;;4.32;;
21243;SDS011;10780;50.942;4.028;2023-02-28T09:46:55;5.50;;;4.43;;
21243;SDS011;10780;50.942;4.028;2023-02-28T09:49:25;4.82;;;4.13;;
21243;SDS011;10780;50.942;4.028;2023-02-28T09:52:12;9.73;;;4.63;;
21243;SDS011;10780;50.942;4.028;2023-02-28T09:54:42;6.82;;;4.70;;
21243;SDS011;10780;50.942;4.028;2023-02-28T10:10:21;4.90;;;4.45;;
21243;SDS011;10780;50.942;4.028;2023-02-28T10:12:55;4.47;;;4.05;;
21243;SDS011;10780;50.942;4.028;2023-02-28T10:15:24;5.43;;;4.00;;
21243;SDS011;10780;50.942;4.028;2023-02-28T10:17:56;6.88;;;3.80;;
21243;SDS011;10780;50.942;4.028;2023-02-28T10:20:25;5.03;;;3.50;;
21243;SDS011;10780;50.942;4.028;2023-02-28T10:23:08;5.15;;;3.67;;
21243;SDS011;10780;50.942;4.028;2023-02-28T10:25:52;4.97;;;3.55;;
21243;SDS011;10780;50.942;4.028;2023-02-28T10:28:22;5.00;;;3.45;;
21243;SDS011;10780;50.942;4.028;2023-02-28T10:30:51;3.70;;;3.40;;
21243;SDS011;10780;50.942;4.028;2023-02-28T10:33:21;7.57;;;3.70;;
21243;SDS011;10780;50.942;4.028;2023-02-28T10:35:54;4.53;;;3.33;;
21243;SDS011;10780;50.942;4.028;2023-02-28T10:38:22;5.05;;;3.47;;
21243;SDS011;10780;50.942;4.028;2023-02-28T10:40:55;4.75;;;3.40;;
21243;SDS011;10780;50.942;4.028;2023-02-28T10:43:31;3.90;;;3.60;;
21243;SDS011;10780;50.942;4.028;2023-02-28T10:51:13;3.53;;;3.28;;
21243;SDS011;10780;50.942;4.028;2023-02-28T10:53:51;4.85;;;3.90;;
21243;SDS011;10780;50.942;4.028;2023-02-28T10:56:20;4.43;;;4.03;;
21243;SDS011;10780;50.942;4.028;2023-02-28T10:58:58;6.18;;;3.80;;
21243;SDS011;10780;50.942;4.028;2023-02-28T11:01:38;3.75;;;3.42;;
21243;SDS011;10780;50.942;4.028;2023-02-28T11:07:01;3.40;;;3.10;;
21243;SDS011;10780;50.942;4.028;2023-02-28T11:09:38;3.47;;;3.17;;
21243;SDS011;10780;50.942;4.028;2023-02-28T11:12:06;3.55;;;3.25;;
21243;SDS011;10780;50.942;4.028;2023-02-28T11:14:36;3.80;;;3.50;;
21243;SDS011;10780;50.942;4.028;2023-02-28T11:17:23;4.40;;;3.90;;
21243;SDS011;10780;50.942;4.028;2023-02-28T11:19:53;4.05;;;3.55;;
21243;SDS011;10780;50.942;4.028;2023-02-28T11:22:22;4.13;;;3.08;;
21243;SDS011;10780;50.942;4.028;2023-02-28T11:24:58;4.45;;;3.95;;
21243;SDS011;10780;50.942;4.028;2023-02-28T11:30:22;4.00;;;3.65;;
21243;SDS011;10780;50.942;4.028;2023-02-28T11:32:50;3.95;;;3.53;;
21243;SDS011;10780;50.942;4.028;2023-02-28T11:35:17;4.30;;;4.00;;
21243;SDS011;10780;50.942;4.028;2023-02-28T11:37:51;4.50;;;3.47;;
21243;SDS011;10780;50.942;4.028;2023-02-28T11:40:39;4.10;;;3.78;;
21243;SDS011;10780;50.942;4.028;2023-02-28T11:51:51;4.00;;;3.63;;
21243;SDS011;10780;50.942;4.028;2023-02-28T12:00:01;3.65;;;3.30;;
21243;SDS011;10780;50.942;4.028;2023-02-28T12:05:46;3.50;;;3.20;;
21243;SDS011;10780;50.942;4.028;2023-02-28T12:08:39;3.47;;;3.17;;
21243;SDS011;10780;50.942;4.028;2023-02-28T12:17:12;5.43;;;3.75;;
21243;SDS011;10780;50.942;4.028;2023-02-28T12:28:29;4.10;;;3.70;;
21243;SDS011;10780;50.942;4.028;2023-02-28T12:31:08;4.20;;;3.33;;
21243;SDS011;10780;50.942;4.028;2023-02-28T12:33:41;3.63;;;3.28;;
21243;SDS011;10780;50.942;4.028;2023-02-28T12:36:14;3.85;;;3.42;;
21243;SDS011;10780;50.942;4.028;2023-02-28T12:38:45;6.18;;;3.90;;
21243;SDS011;10780;50.942;4.028;2023-02-28T12:41:29;4.25;;;3.90;;
21243;SDS011;10780;50.942;4.028;2023-02-28T12:44:06;5.30;;;3.83;;
21243;SDS011;10780;50.942;4.028;2023-02-28T12:46:41;4.07;;;3.63;;
21243;SDS011;10780;50.942;4.028;2023-02-28T12:49:23;4.95;;;3.78;;
21243;SDS011;10780;50.942;4.028;2023-02-28T12:51:52;5.18;;;4.25;;
21243;SDS011;10780;50.942;4.028;2023-02-28T12:54:29;4.00;;;3.70;;
21243;SDS011;10780;50.942;4.028;2023-02-28T13:05:29;4.28;;;3.80;;
21243;SDS011;10780;50.942;4.028;2023-02-28T13:08:20;4.43;;;3.90;;
21243;SDS011;10780;50.942;4.028;2023-02-28T13:10:52;4.68;;;4.10;;
21243;SDS011;10780;50.942;4.028;2023-02-28T13:13:28;4.28;;;3.40;;
21243;SDS011;10780;50.942;4.028;2023-02-28T13:16:00;4.30;;;3.67;;
21243;SDS011;10780;50.942;4.028;2023-02-28T13:18:41;3.95;;;3.65;;
21243;SDS011;10780;50.942;4.028;2023-02-28T13:21:22;4.18;;;3.55;;
21243;SDS011;10780;50.942;4.028;2023-02-28T13:34:30;6.53;;;4.82;;
21243;SDS011;10780;50.942;4.028;2023-02-28T13:43:07;4.03;;;3.72;;
21243;SDS011;10780;50.942;4.028;2023-02-28T13:45:33;5.30;;;3.97;;
21243;SDS011;10780;50.942;4.028;2023-02-28T13:48:24;5.65;;;4.22;;
21243;SDS011;10780;50.942;4.028;2023-02-28T13:50:52;6.03;;;4.25;;
21243;SDS011;10780;50.942;4.028;2023-02-28T13:53:36;5.63;;;4.15;;
21243;SDS011;10780;50.942;4.028;2023-02-28T13:56:32;4.07;;;3.65;;
21243;SDS011;10780;50.942;4.028;2023-02-28T13:59:16;4.38;;;3.85;;
21243;SDS011;10780;50.942;4.028;2023-02-28T14:02:03;4.35;;;3.95;;
21243;SDS011;10780;50.942;4.028;2023-02-28T14:04:59;4.93;;;3.72;;
21243;SDS011;10780;50.942;4.028;2023-02-28T14:07:37;3.92;;;3.60;;
21243;SDS011;10780;50.942;4.028;2023-02-28T14:10:08;3.83;;;3.47;;
21243;SDS011;10780;50.942;4.028;2023-02-28T14:15:46;4.93;;;4.40;;
21243;SDS011;10780;50.942;4.028;2023-02-28T14:18:33;4.50;;;4.10;;
21243;SDS011;10780;50.942;4.028;2023-02-28T14:21:03;4.72;;;3.80;;
21243;SDS011;10780;50.942;4.028;2023-02-28T14:26:28;5.22;;;4.72;;
21243;SDS011;10780;50.942;4.028;2023-02-28T14:31:44;4.65;;;4.00;;
21243;SDS011;10780;50.942;4.028;2023-02-28T14:37:36;5.68;;;5.03;;
21243;SDS011;10780;50.942;4.028;2023-02-28T14:40:04;7.72;;;4.15;;
21243;SDS011;10780;50.942;4.028;2023-02-28T14:42:39;4.30;;;3.90;;
21243;SDS011;10780;50.942;4.028;2023-02-28T14:45:17;4.78;;;4.20;;
21243;SDS011;10780;50.942;4.028;2023-02-28T14:47:47;4.85;;;4.35;;
21243;SDS011;10780;50.942;4.028;2023-02-28T14:50:18;4.93;;;4.05;;
21243;SDS011;10780;50.942;4.028;2023-02-28T14:52:46;5.28;;;4.10;;
21243;SDS011;10780;50.942;4.028;2023-02-28T14:55:14;4.60;;;4.10;;
21243;SDS011;10780;50.942;4.028;2023-02-28T15:00:34;4.25;;;3.85;;
21243;SDS011;10780;50.942;4.028;2023-02-28T15:06:00;5.00;;;4.13;;
21243;SDS011;10780;50.942;4.028;2023-02-28T15:08:27;7.13;;;4.25;;
21243;SDS011;10780;50.942;4.028;2023-02-28T15:10:58;4.90;;;4.50;;
21243;SDS011;10780;50.942;4.028;2023-02-28T15:13:35;5.57;;;3.85;;
21243;SDS011;10780;50.942;4.028;2023-02-28T15:16:02;5.05;;;4.32;;
21243;SDS011;10780;50.942;4.028;2023-02-28T15:18:31;4.65;;;3.78;;
21243;SDS011;10780;50.942;4.028;2023-02-28T15:21:21;7.05;;;4.05;;
21243;SDS011;10780;50.942;4.028;2023-02-28T15:26:50;5.10;;;4.30;;
21243;SDS011;10780;50.942;4.028;2023-02-28T15:29:21;5.03;;;4.00;;
21243;SDS011;10780;50.942;4.028;2023-02-28T15:31:56;6.40;;;4.07;;
21243;SDS011;10780;50.942;4.028;2023-02-28T15:34:33;3.67;;;3.33;;
21243;SDS011;10780;50.942;4.028;2023-02-28T15:39:58;5.65;;;4.32;;
21243;SDS011;10780;50.942;4.028;2023-02-28T15:42:38;4.57;;;4.03;;
21243;SDS011;10780;50.942;4.028;2023-02-28T15:45:04;6.13;;;4.40;;
21243;SDS011;10780;50.942;4.028;2023-02-28T15:47:30;5.45;;;3.92;;
21243;SDS011;10780;50.942;4.028;2023-02-28T15:50:03;4.32;;;3.92;;
21243;SDS011;10780;50.942;4.028;2023-02-28T15:52:39;6.45;;;4.30;;
21243;SDS011;10780;50.942;4.028;2023-02-28T15:55:18;4.30;;;3.63;;
21243;SDS011;10780;50.942;4.028;2023-02-28T15:57:44;5.13;;;3.80;;
21243;SDS011;10780;50.942;4.028;2023-02-28T16:00:13;5.82;;;4.22;;
21243;SDS011;10780;50.942;4.028;2023-02-28T16:02:41;5.07;;;4.43;;
21243;SDS011;10780;50.942;4.028;2023-02-28T16:07:38;5.18;;;3.75;;
21243;SDS011;10780;50.942;4.028;2023-02-28T16:10:08;5.45;;;3.80;;
21243;SDS011;10780;50.942;4.028;2023-02-28T16:12:36;7.40;;;4.35;;
21243;SDS011;10780;50.942;4.028;2023-02-28T16:15:23;4.20;;;3.80;;
21243;SDS011;10780;50.942;4.028;2023-02-28T16:17:54;5.72;;;3.95;;
21243;SDS011;10780;50.942;4.028;2023-02-28T16:20:22;4.65;;;4.18;;
21243;SDS011;10780;50.942;4.028;2023-02-28T16:22:52;5.43;;;4.07;;
21243;SDS011;10780;50.942;4.028;2023-02-28T16:25:19;5.53;;;4.15;;
21243;SDS011;10780;50.942;4.028;2023-02-28T16:27:48;6.65;;;4.55;;
21243;SDS011;10780;50.942;4.028;2023-02-28T16:30:17;5.22;;;4.40;;
21243;SDS011;10780;50.942;4.028;2023-02-28T16:32:46;5.10;;;3.85;;
21243;SDS011;10780;50.942;4.028;2023-02-28T16:35:12;4.95;;;4.15;;
21243;SDS011;10780;50.942;4.028;2023-02-28T16:37:39;6.85;;;4.72;;
21243;SDS011;10780;50.942;4.028;2023-02-28T16:40:06;5.15;;;4.32;;
21243;SDS011;10780;50.942;4.028;2023-02-28T16:42:34;5.35;;;4.70;;
21243;SDS011;10780;50.942;4.028;2023-02-28T16:45:00;7.32;;;4.63;;
21243;SDS011;10780;50.942;4.028;2023-02-28T16:47:25;5.90;;;4.70;;
21243;SDS011;10780;50.942;4.028;2023-02-28T16:49:51;6.40;;;4.53;;
21243;SDS011;10780;50.942;4.028;2023-02-28T16:52:17;4.90;;;4.43;;
21243;SDS011;10780;50.942;4.028;2023-02-28T16:54:43;6.68;;;4.35;;
21243;SDS011;10780;50.942;4.028;2023-02-28T16:57:21;5.10;;;4.57;;
21243;SDS011;10780;50.942;4.028;2023-02-28T16:59:48;7.80;;;4.60;;
21243;SDS011;10780;50.942;4.028;2023-02-28T17:02:16;5.63;;;5.07;;
21243;SDS011;10780;50.942;4.028;2023-02-28T17:04:44;7.80;;;5.22;;
21243;SDS011;10780;50.942;4.028;2023-02-28T17:07:11;6.18;;;5.05;;
21243;SDS011;10780;50.942;4.028;2023-02-28T17:09:38;9.27;;;5.40;;
21243;SDS011;10780;50.942;4.028;2023-02-28T17:12:07;5.65;;;4.90;;
21243;SDS011;10780;50.942;4.028;2023-02-28T17:14:34;5.78;;;4.97;;
21243;SDS011;10780;50.942;4.028;2023-02-28T17:17:00;7.85;;;5.05;;
21243;SDS011;10780;50.942;4.028;2023-02-28T17:19:25;5.28;;;4.40;;
21243;SDS011;10780;50.942;4.028;2023-02-28T17:21:53;4.93;;;4.30;;
21243;SDS011;10780;50.942;4.028;2023-02-28T17:24:18;5.20;;;4.70;;